createdAt,value
2018-11-06T00:00:17.313Z,59.00
2018-11-06T00:01:17.293Z,59.09
2018-11-06T00:02:17.289Z,59.48
2018-11-06T00:03:17.275Z,60.14
2018-11-06T00:04:17.261Z,59.76
2018-11-06T00:05:17.246Z,58.81
2018-11-06T00:06:17.229Z,58.24
2018-11-06T00:07:17.221Z,58.33
2018-11-06T00:08:17.214Z,58.65
2018-11-06T00:09:17.212Z,58.84
2018-11-06T00:10:17.184Z,58.43
2018-11-06T00:11:17.173Z,58.33
2018-11-06T00:12:17.159Z,57.67
2018-11-06T00:13:17.147Z,57.57
2018-11-06T00:14:17.130Z,57.79
2018-11-06T00:15:17.119Z,58.17
2018-11-06T00:16:17.112Z,58.65
2018-11-06T00:17:17.097Z,58.55
2018-11-06T00:18:17.087Z,57.79
2018-11-06T00:19:17.067Z,57.50
2018-11-06T00:20:17.063Z,57.50
2018-11-06T00:21:17.044Z,57.50
2018-11-06T00:22:17.035Z,57.50
2018-11-06T00:23:17.018Z,56.74
2018-11-06T00:24:17.011Z,57.03
2018-11-06T00:25:16.995Z,56.55
2018-11-06T00:26:16.979Z,56.55
2018-11-06T00:27:16.971Z,57.31
2018-11-06T00:28:16.956Z,57.22
2018-11-06T00:29:16.944Z,56.55
2018-11-06T00:30:16.932Z,56.26
2018-11-06T00:31:16.922Z,56.84
2018-11-06T00:32:16.909Z,56.55
2018-11-06T00:33:16.892Z,56.55
2018-11-06T00:34:16.945Z,56.36
2018-11-06T00:35:16.870Z,56.74
2018-11-06T00:36:16.860Z,56.36
2018-11-06T00:37:16.846Z,55.88
2018-11-06T00:38:16.827Z,56.55
2018-11-06T00:39:16.817Z,56.36
2018-11-06T00:40:16.807Z,55.88
2018-11-06T00:41:16.800Z,55.91
2018-11-06T00:42:16.773Z,55.72
2018-11-06T00:43:16.767Z,55.72
2018-11-06T00:44:16.767Z,55.82
2018-11-06T00:45:16.744Z,55.82
2018-11-06T00:46:16.731Z,55.82
2018-11-06T00:47:16.714Z,56.38
2018-11-06T00:48:16.704Z,56.67
2018-11-06T00:49:16.691Z,55.72
2018-11-06T00:50:16.678Z,55.88
2018-11-06T00:51:16.670Z,55.91
2018-11-06T00:52:16.655Z,55.82
2018-11-06T00:53:16.640Z,56.01
2018-11-06T00:54:16.621Z,55.72
2018-11-06T00:55:16.617Z,56.07
2018-11-06T00:56:16.601Z,55.72
2018-11-06T00:57:16.590Z,56.29
2018-11-06T00:58:16.582Z,56.58
2018-11-06T00:59:16.564Z,56.10
2018-11-06T01:00:16.558Z,55.05
2018-11-06T01:01:16.547Z,55.15
2018-11-06T01:02:16.527Z,54.67
2018-11-06T01:03:16.515Z,54.67
2018-11-06T01:04:16.505Z,55.43
2018-11-06T01:05:16.489Z,54.96
2018-11-06T01:06:16.479Z,55.15
2018-11-06T01:07:16.517Z,55.72
2018-11-06T01:08:16.456Z,56.10
2018-11-06T01:09:16.439Z,55.53
2018-11-06T01:10:16.430Z,55.53
2018-11-06T01:11:16.413Z,55.53
2018-11-06T01:12:16.401Z,55.91
2018-11-06T01:13:16.389Z,55.24
2018-11-06T01:14:16.379Z,55.53
2018-11-06T01:15:16.362Z,55.72
2018-11-06T01:16:16.351Z,55.82
2018-11-06T01:17:16.335Z,55.82
2018-11-06T01:18:16.326Z,55.62
2018-11-06T01:19:16.322Z,55.91
2018-11-06T01:20:16.300Z,56.38
2018-11-06T01:21:16.285Z,55.91
2018-11-06T01:22:16.277Z,55.82
2018-11-06T01:23:16.265Z,56.01
2018-11-06T01:24:16.255Z,55.43
2018-11-06T01:25:16.239Z,55.82
2018-11-06T01:26:16.228Z,55.34
2018-11-06T01:27:16.212Z,55.24
2018-11-06T01:28:16.199Z,54.86
2018-11-06T01:29:16.182Z,54.67
2018-11-06T01:30:16.175Z,54.86
2018-11-06T01:31:16.161Z,54.57
2018-11-06T01:32:16.153Z,54.48
2018-11-06T01:33:16.141Z,55.34
2018-11-06T01:34:16.127Z,55.05
2018-11-06T01:35:16.107Z,55.15
2018-11-06T01:36:16.102Z,55.43
2018-11-06T01:37:16.085Z,55.91
2018-11-06T01:38:16.077Z,55.62
2018-11-06T01:39:16.060Z,55.53
2018-11-06T01:40:16.050Z,55.24
2018-11-06T01:41:16.035Z,55.34
2018-11-06T01:42:16.025Z,55.34
2018-11-06T01:43:16.013Z,55.43
2018-11-06T01:44:15.996Z,55.24
2018-11-06T01:45:15.987Z,54.77
2018-11-06T01:46:15.972Z,54.77
2018-11-06T01:47:15.962Z,54.57
2018-11-06T01:48:15.954Z,54.96
2018-11-06T01:49:15.934Z,54.77
2018-11-06T01:50:15.918Z,54.77
2018-11-06T01:51:15.909Z,55.24
2018-11-06T01:52:15.899Z,55.15
2018-11-06T01:53:15.885Z,54.77
2018-11-06T01:54:15.876Z,55.24
2018-11-06T01:55:15.861Z,54.86
2018-11-06T01:56:15.847Z,54.77
2018-11-06T01:57:15.833Z,54.86
2018-11-06T01:58:15.820Z,55.53
2018-11-06T01:59:15.804Z,54.86
2018-11-06T02:00:15.795Z,55.05
2018-11-06T02:01:15.787Z,54.67
2018-11-06T02:02:15.775Z,54.67
2018-11-06T02:03:15.754Z,54.86
2018-11-06T02:04:15.749Z,54.77
2018-11-06T02:05:15.732Z,54.77
2018-11-06T02:06:15.725Z,54.67
2018-11-06T02:07:15.709Z,54.77
2018-11-06T02:08:15.700Z,55.43
2018-11-06T02:09:15.683Z,54.29
2018-11-06T02:10:15.673Z,55.34
2018-11-06T02:11:15.663Z,55.43
2018-11-06T02:12:15.653Z,54.67
2018-11-06T02:13:15.676Z,54.48
2018-11-06T02:14:15.627Z,54.86
2018-11-06T02:15:15.611Z,54.29
2018-11-06T02:16:15.595Z,55.24
2018-11-06T02:17:15.582Z,54.38
2018-11-06T02:18:15.570Z,55.43
2018-11-06T02:19:15.560Z,54.67
2018-11-06T02:20:15.549Z,54.77
2018-11-06T02:21:15.534Z,54.77
2018-11-06T02:22:15.523Z,54.86
2018-11-06T02:23:15.503Z,54.89
2018-11-06T02:24:15.506Z,54.89
2018-11-06T02:25:15.485Z,54.77
2018-11-06T02:26:15.476Z,54.70
2018-11-06T02:27:15.461Z,54.67
2018-11-06T02:28:15.449Z,54.70
2018-11-06T02:29:15.435Z,55.53
2018-11-06T02:30:15.425Z,55.53
2018-11-06T02:31:15.412Z,56.29
2018-11-06T02:32:15.435Z,56.87
2018-11-06T02:33:15.387Z,57.41
2018-11-06T02:34:15.372Z,58.55
2018-11-06T02:35:15.366Z,59.22
2018-11-06T02:36:15.353Z,59.70
2018-11-06T02:37:15.337Z,59.76
2018-11-06T02:38:15.322Z,60.14
2018-11-06T02:39:15.308Z,60.52
2018-11-06T02:40:15.306Z,60.91
2018-11-06T02:41:15.282Z,60.52
2018-11-06T02:42:15.272Z,61.38
2018-11-06T02:43:15.262Z,60.81
2018-11-06T02:44:15.253Z,61.19
2018-11-06T02:45:15.236Z,61.19
2018-11-06T02:46:15.217Z,60.91
2018-11-06T02:47:15.207Z,61.10
2018-11-06T02:48:15.200Z,60.72
2018-11-06T02:49:15.183Z,60.14
2018-11-06T02:50:15.169Z,60.33
2018-11-06T02:51:15.158Z,59.57
2018-11-06T02:52:15.150Z,59.95
2018-11-06T02:53:15.138Z,59.86
2018-11-06T02:54:15.124Z,59.00
2018-11-06T02:55:15.110Z,59.09
2018-11-06T02:56:15.093Z,59.00
2018-11-06T02:57:15.080Z,59.19
2018-11-06T02:58:15.073Z,59.09
2018-11-06T02:59:15.059Z,59.00
2018-11-06T03:00:15.048Z,58.84
2018-11-06T03:01:15.034Z,59.09
2018-11-06T03:02:15.022Z,59.19
2018-11-06T03:03:15.013Z,58.46
2018-11-06T03:04:14.995Z,58.75
2018-11-06T03:05:14.979Z,58.07
2018-11-06T03:06:14.968Z,58.36
2018-11-06T03:07:14.957Z,57.89
2018-11-06T03:08:14.945Z,57.50
2018-11-06T03:09:14.938Z,56.93
2018-11-06T03:10:14.995Z,57.31
2018-11-06T03:11:14.900Z,57.03
2018-11-06T03:12:14.893Z,57.22
2018-11-06T03:13:14.882Z,56.74
2018-11-06T03:14:14.864Z,56.36
2018-11-06T03:15:14.858Z,56.17
2018-11-06T03:16:14.851Z,56.58
2018-11-06T03:17:14.835Z,56.48
2018-11-06T03:18:14.822Z,56.20
2018-11-06T03:19:14.808Z,55.43
2018-11-06T03:20:14.795Z,55.62
2018-11-06T03:21:14.787Z,55.53
2018-11-06T03:22:14.762Z,54.96
2018-11-06T03:23:14.753Z,54.96
2018-11-06T03:24:14.748Z,54.77
2018-11-06T03:25:14.729Z,54.67
2018-11-06T03:26:14.719Z,54.67
2018-11-06T03:27:14.710Z,55.53
2018-11-06T03:28:14.689Z,55.53
2018-11-06T03:29:14.677Z,55.53
2018-11-06T03:30:14.667Z,55.72
2018-11-06T03:31:14.655Z,56.10
2018-11-06T03:32:14.651Z,55.72
2018-11-06T03:33:14.634Z,56.10
2018-11-06T03:34:14.614Z,55.53
2018-11-06T03:35:14.615Z,55.91
2018-11-06T03:36:14.590Z,55.82
2018-11-06T03:37:14.578Z,55.62
2018-11-06T03:38:14.562Z,56.38
2018-11-06T03:39:14.554Z,56.48
2018-11-06T03:40:14.540Z,55.88
2018-11-06T03:41:14.530Z,55.43
2018-11-06T03:42:14.509Z,55.62
2018-11-06T03:43:14.508Z,55.82
2018-11-06T03:44:14.493Z,55.53
2018-11-06T03:45:14.472Z,55.43
2018-11-06T03:46:14.465Z,56.01
2018-11-06T03:47:14.457Z,55.72
2018-11-06T03:48:14.446Z,55.05
2018-11-06T03:49:14.427Z,55.34
2018-11-06T03:50:14.416Z,54.57
2018-11-06T03:51:14.398Z,55.34
2018-11-06T03:52:14.391Z,55.53
2018-11-06T03:53:14.378Z,55.53
2018-11-06T03:54:14.365Z,55.43
2018-11-06T03:55:14.355Z,55.34
2018-11-06T03:56:14.342Z,55.34
2018-11-06T03:57:14.335Z,55.05
2018-11-06T03:58:14.313Z,55.24
2018-11-06T03:59:14.310Z,55.15
2018-11-06T04:00:14.289Z,55.24
2018-11-06T04:01:14.278Z,55.53
2018-11-06T04:02:14.266Z,54.86
2018-11-06T04:03:14.253Z,55.34
2018-11-06T04:04:14.238Z,54.96
2018-11-06T04:05:14.232Z,56.58
2018-11-06T04:06:14.218Z,57.06
2018-11-06T04:07:14.201Z,57.53
2018-11-06T04:08:14.185Z,58.55
2018-11-06T04:09:14.174Z,58.65
2018-11-06T04:10:14.163Z,59.22
2018-11-06T04:11:14.156Z,59.22
2018-11-06T04:12:14.137Z,59.48
2018-11-06T04:13:14.125Z,60.08
2018-11-06T04:14:14.119Z,60.05
2018-11-06T04:15:14.115Z,60.33
2018-11-06T04:16:14.090Z,61.10
2018-11-06T04:17:14.071Z,60.24
2018-11-06T04:18:14.068Z,60.91
2018-11-06T04:19:14.045Z,61.19
2018-11-06T04:20:14.044Z,61.00
2018-11-06T04:21:14.023Z,60.81
2018-11-06T04:22:14.018Z,61.76
2018-11-06T04:23:13.999Z,61.48
2018-11-06T04:24:13.984Z,61.76
2018-11-06T04:25:13.975Z,61.57
2018-11-06T04:26:13.964Z,61.86
2018-11-06T04:27:13.946Z,61.96
2018-11-06T04:28:13.932Z,62.24
2018-11-06T04:29:13.922Z,62.02
2018-11-06T04:30:13.922Z,62.02
2018-11-06T04:31:13.896Z,62.12
2018-11-06T04:32:13.888Z,62.49
2018-11-06T04:33:13.870Z,62.30
2018-11-06T04:34:13.860Z,62.68
2018-11-06T04:35:13.846Z,62.49
2018-11-06T04:36:13.834Z,62.59
2018-11-06T04:37:13.825Z,63.26
2018-11-06T04:38:13.805Z,63.17
2018-11-06T04:39:13.794Z,62.30
2018-11-06T04:40:13.781Z,62.59
2018-11-06T04:41:13.769Z,62.68
2018-11-06T04:42:13.759Z,63.17
2018-11-06T04:43:13.744Z,63.45
2018-11-06T04:44:13.733Z,63.73
2018-11-06T04:45:13.724Z,63.07
2018-11-06T04:46:13.707Z,62.21
2018-11-06T04:47:13.688Z,61.25
2018-11-06T04:48:13.683Z,60.97
2018-11-06T04:49:13.668Z,60.72
2018-11-06T04:50:13.664Z,60.14
2018-11-06T04:51:13.644Z,60.14
2018-11-06T04:52:13.629Z,59.86
2018-11-06T04:53:13.614Z,58.81
2018-11-06T04:54:13.600Z,59.03
2018-11-06T04:55:13.591Z,58.17
2018-11-06T04:56:13.581Z,59.22
2018-11-06T04:57:13.565Z,59.51
2018-11-06T04:58:13.582Z,60.33
2018-11-06T04:59:13.544Z,61.19
2018-11-06T05:00:13.525Z,61.00
2018-11-06T05:01:13.519Z,61.86
2018-11-06T05:02:13.584Z,61.76
2018-11-06T05:03:13.497Z,62.49
2018-11-06T05:04:13.476Z,62.68
2018-11-06T05:05:13.470Z,62.30
2018-11-06T05:06:13.451Z,62.68
2018-11-06T05:07:13.437Z,63.07
2018-11-06T05:08:13.423Z,63.07
2018-11-06T05:09:13.410Z,63.17
2018-11-06T05:10:13.396Z,63.26
2018-11-06T05:11:13.390Z,63.07
2018-11-06T05:12:13.378Z,62.97
2018-11-06T05:13:13.358Z,63.45
2018-11-06T05:14:13.412Z,63.07
2018-11-06T05:15:13.338Z,63.35
2018-11-06T05:16:13.327Z,63.83
2018-11-06T05:17:13.310Z,63.45
2018-11-06T05:18:13.297Z,63.92
2018-11-06T05:19:13.281Z,63.92
2018-11-06T05:20:13.269Z,63.73
2018-11-06T05:21:13.257Z,63.45
2018-11-06T05:22:13.250Z,63.54
2018-11-06T05:23:13.231Z,63.45
2018-11-06T05:24:13.213Z,63.92
2018-11-06T05:25:13.216Z,63.35
2018-11-06T05:26:13.192Z,63.64
2018-11-06T05:27:13.193Z,63.45
2018-11-06T05:28:13.167Z,62.97
2018-11-06T05:29:13.154Z,63.92
2018-11-06T05:30:13.148Z,63.26
2018-11-06T05:31:13.131Z,63.07
2018-11-06T05:32:13.117Z,62.78
2018-11-06T05:33:13.108Z,61.76
2018-11-06T05:34:13.088Z,61.67
2018-11-06T05:35:13.082Z,61.29
2018-11-06T05:36:13.072Z,61.00
2018-11-06T05:37:13.067Z,61.48
2018-11-06T05:38:13.039Z,60.72
2018-11-06T05:39:13.141Z,60.43
2018-11-06T05:40:13.016Z,60.05
2018-11-06T05:41:13.002Z,59.76
2018-11-06T05:42:12.986Z,60.43
2018-11-06T05:43:12.981Z,59.79
2018-11-06T05:44:12.961Z,59.99
2018-11-06T05:45:12.953Z,59.86
2018-11-06T05:46:12.936Z,59.89
2018-11-06T05:47:12.922Z,59.89
2018-11-06T05:48:12.908Z,59.70
2018-11-06T05:49:12.896Z,59.89
2018-11-06T05:50:12.886Z,59.70
2018-11-06T05:51:12.880Z,59.51
2018-11-06T05:52:12.867Z,59.60
2018-11-06T05:53:12.852Z,59.79
2018-11-06T05:54:12.834Z,59.70
2018-11-06T05:55:12.820Z,59.41
2018-11-06T05:56:12.814Z,58.94
2018-11-06T05:57:12.793Z,59.51
2018-11-06T05:58:12.781Z,59.51
2018-11-06T05:59:12.804Z,59.60
2018-11-06T06:00:12.763Z,59.89
2018-11-06T06:01:12.740Z,60.08
2018-11-06T06:02:12.728Z,59.60
2018-11-06T06:03:12.721Z,59.70
2018-11-06T06:04:12.705Z,60.36
2018-11-06T06:05:12.698Z,60.46
2018-11-06T06:06:12.686Z,60.55
2018-11-06T06:07:12.670Z,61.22
2018-11-06T06:08:12.658Z,61.04
2018-11-06T06:09:12.656Z,60.17
2018-11-06T06:10:12.629Z,60.36
2018-11-06T06:11:12.672Z,59.99
2018-11-06T06:12:12.608Z,60.08
2018-11-06T06:13:12.592Z,59.99
2018-11-06T06:14:12.579Z,59.51
2018-11-06T06:15:12.563Z,60.36
2018-11-06T06:16:12.551Z,60.17
2018-11-06T06:17:12.557Z,60.27
2018-11-06T06:18:12.528Z,60.08
2018-11-06T06:19:12.515Z,60.17
2018-11-06T06:20:12.507Z,60.55
2018-11-06T06:21:12.493Z,60.17
2018-11-06T06:22:12.478Z,60.46
2018-11-06T06:23:12.466Z,60.08
2018-11-06T06:24:12.454Z,60.17
2018-11-06T06:25:12.440Z,60.46
2018-11-06T06:26:12.428Z,60.94
2018-11-06T06:27:12.419Z,61.04
2018-11-06T06:28:12.423Z,60.84
2018-11-06T06:29:12.392Z,60.36
2018-11-06T06:30:12.373Z,60.17
2018-11-06T06:31:12.363Z,60.27
2018-11-06T06:32:12.353Z,60.65
2018-11-06T06:33:12.337Z,61.13
2018-11-06T06:34:12.323Z,61.32
2018-11-06T06:35:12.408Z,61.22
2018-11-06T06:36:12.304Z,61.51
2018-11-06T06:37:12.288Z,61.60
2018-11-06T06:38:12.274Z,61.60
2018-11-06T06:39:12.263Z,61.60
2018-11-06T06:40:12.318Z,62.08
2018-11-06T06:41:12.239Z,62.18
2018-11-06T06:42:12.234Z,62.18
2018-11-06T06:43:12.211Z,61.99
2018-11-06T06:44:12.201Z,61.89
2018-11-06T06:45:12.186Z,61.89
2018-11-06T06:46:12.182Z,61.51
2018-11-06T06:47:12.165Z,61.89
2018-11-06T06:48:12.148Z,61.89
2018-11-06T06:49:12.139Z,60.17
2018-11-06T06:50:12.127Z,59.99
2018-11-06T06:51:12.115Z,60.46
2018-11-06T06:52:12.100Z,61.13
2018-11-06T06:53:12.089Z,61.54
2018-11-06T06:54:12.172Z,61.41
2018-11-06T06:55:12.160Z,61.89
2018-11-06T06:56:12.055Z,61.73
2018-11-06T06:57:12.037Z,61.89
2018-11-06T06:58:12.027Z,62.30
2018-11-06T06:59:12.011Z,62.78
2018-11-06T07:00:11.998Z,62.49
2018-11-06T07:01:11.985Z,61.73
2018-11-06T07:02:11.979Z,60.87
2018-11-06T07:03:11.965Z,61.16
2018-11-06T07:04:11.952Z,60.78
2018-11-06T07:05:11.940Z,60.78
2018-11-06T07:06:11.924Z,60.21
2018-11-06T07:07:11.912Z,60.21
2018-11-06T07:08:11.934Z,60.21
2018-11-06T07:09:11.891Z,60.68
2018-11-06T07:10:11.875Z,60.97
2018-11-06T07:11:11.863Z,60.78
2018-11-06T07:12:11.853Z,59.92
2018-11-06T07:13:11.837Z,58.97
2018-11-06T07:14:11.831Z,59.66
2018-11-06T07:15:11.811Z,60.52
2018-11-06T07:16:11.808Z,60.39
2018-11-06T07:17:11.793Z,60.71
2018-11-06T07:18:11.779Z,60.61
2018-11-06T07:19:11.766Z,61.95
2018-11-06T07:20:11.758Z,61.95
2018-11-06T07:21:11.740Z,61.86
2018-11-06T07:22:11.730Z,61.95
2018-11-06T07:23:11.718Z,61.86
2018-11-06T07:24:11.702Z,60.14
2018-11-06T07:25:11.690Z,58.51
2018-11-06T07:26:11.681Z,57.46
2018-11-06T07:27:11.669Z,57.37
2018-11-06T07:28:11.657Z,56.73
2018-11-06T07:29:11.647Z,56.63
2018-11-06T07:30:11.635Z,55.58
2018-11-06T07:31:11.625Z,55.01
2018-11-06T07:32:11.607Z,54.37
2018-11-06T07:33:11.593Z,53.32
2018-11-06T07:34:11.585Z,53.34
2018-11-06T07:35:11.661Z,53.06
2018-11-06T07:36:11.563Z,52.77
2018-11-06T07:37:11.546Z,52.87
2018-11-06T07:38:11.537Z,52.48
2018-11-06T07:39:11.526Z,52.58
2018-11-06T07:40:11.511Z,52.67
2018-11-06T07:41:11.597Z,52.87
2018-11-06T07:42:11.494Z,53.06
2018-11-06T07:43:11.474Z,52.58
2018-11-06T07:44:11.466Z,52.39
2018-11-06T07:45:11.450Z,52.58
2018-11-06T07:46:11.443Z,52.77
2018-11-06T07:47:11.428Z,51.53
2018-11-06T07:48:11.413Z,52.39
2018-11-06T07:49:11.402Z,52.39
2018-11-06T07:50:11.425Z,52.87
2018-11-06T07:51:11.379Z,52.96
2018-11-06T07:52:11.371Z,52.87
2018-11-06T07:53:11.359Z,52.77
2018-11-06T07:54:11.345Z,52.01
2018-11-06T07:55:11.332Z,52.01
2018-11-06T07:56:11.337Z,51.91
2018-11-06T07:57:11.308Z,52.10
2018-11-06T07:58:11.298Z,51.84
2018-11-06T07:59:11.286Z,52.48
2018-11-06T08:00:11.274Z,52.39
2018-11-06T08:01:11.269Z,52.32
2018-11-06T08:02:11.252Z,52.13
2018-11-06T08:03:11.242Z,51.75
2018-11-06T08:04:11.270Z,52.13
2018-11-06T08:05:11.215Z,51.84
2018-11-06T08:06:11.211Z,51.75
2018-11-06T08:07:11.193Z,52.03
2018-11-06T08:08:11.179Z,51.36
2018-11-06T08:09:11.165Z,51.07
2018-11-06T08:10:11.160Z,51.27
2018-11-06T08:11:11.143Z,50.98
2018-11-06T08:12:11.138Z,51.46
2018-11-06T08:13:11.118Z,51.36
2018-11-06T08:14:11.113Z,51.84
2018-11-06T08:15:11.170Z,51.27
2018-11-06T08:16:11.091Z,51.07
2018-11-06T08:17:11.080Z,51.07
2018-11-06T08:18:11.073Z,50.60
2018-11-06T08:19:11.053Z,49.84
2018-11-06T08:20:11.043Z,49.57
2018-11-06T08:21:11.025Z,50.31
2018-11-06T08:22:11.020Z,49.38
2018-11-06T08:23:11.009Z,49.48
2018-11-06T08:24:10.994Z,50.05
2018-11-06T08:25:10.985Z,49.48
2018-11-06T08:26:10.972Z,49.57
2018-11-06T08:27:10.964Z,48.80
2018-11-06T08:28:10.946Z,48.90
2018-11-06T08:29:10.939Z,48.33
2018-11-06T08:30:10.992Z,48.61
2018-11-06T08:31:11.099Z,48.33
2018-11-06T08:32:11.304Z,48.52
2018-11-06T08:33:10.900Z,49.19
2018-11-06T08:34:10.887Z,48.04
2018-11-06T08:35:10.874Z,48.16
2018-11-06T08:36:10.862Z,48.16
2018-11-06T08:37:10.957Z,48.25
2018-11-06T08:38:10.834Z,48.25
2018-11-06T08:39:10.827Z,47.01
2018-11-06T08:40:10.816Z,47.87
2018-11-06T08:41:10.808Z,46.44
2018-11-06T08:42:10.790Z,47.87
2018-11-06T08:43:10.784Z,47.97
2018-11-06T08:44:10.773Z,46.82
2018-11-06T08:45:10.759Z,46.08
2018-11-06T08:46:10.744Z,45.40
2018-11-06T08:47:10.739Z,45.40
2018-11-06T08:48:10.836Z,45.40
2018-11-06T08:49:10.710Z,45.31
2018-11-06T08:50:10.704Z,45.59
2018-11-06T08:51:10.693Z,44.64
2018-11-06T08:52:10.687Z,44.64
2018-11-06T08:53:10.668Z,45.40
2018-11-06T08:54:10.663Z,45.79
2018-11-06T08:55:10.656Z,45.12
2018-11-06T08:56:10.639Z,45.21
2018-11-06T08:57:10.627Z,44.45
2018-11-06T08:58:10.619Z,45.12
2018-11-06T08:59:10.607Z,44.64
2018-11-06T09:00:10.593Z,44.95
2018-11-06T09:01:10.587Z,44.95
2018-11-06T09:02:10.574Z,45.23
2018-11-06T09:03:10.566Z,46.19
2018-11-06T09:04:10.553Z,45.43
2018-11-06T09:05:10.540Z,45.52
2018-11-06T09:06:10.530Z,45.14
2018-11-06T09:07:10.525Z,45.33
2018-11-06T09:08:10.508Z,45.14
2018-11-06T09:09:10.503Z,44.76
2018-11-06T09:10:10.487Z,44.76
2018-11-06T09:11:10.481Z,45.23
2018-11-06T09:12:10.471Z,45.43
2018-11-06T09:13:10.459Z,44.56
2018-11-06T09:14:10.451Z,45.23
2018-11-06T09:15:10.437Z,44.37
2018-11-06T09:16:10.428Z,44.16
2018-11-06T09:17:10.472Z,44.45
2018-11-06T09:18:10.406Z,45.31
2018-11-06T09:19:10.392Z,45.31
2018-11-06T09:20:10.388Z,45.12
2018-11-06T09:21:10.374Z,45.21
2018-11-06T09:22:10.364Z,45.59
2018-11-06T09:23:10.353Z,46.36
2018-11-06T09:24:10.341Z,45.59
2018-11-06T09:25:10.332Z,45.31
2018-11-06T09:26:10.322Z,45.31
2018-11-06T09:27:10.308Z,45.40
2018-11-06T09:28:10.298Z,45.02
2018-11-06T09:29:10.292Z,45.98
2018-11-06T09:30:10.278Z,45.69
2018-11-06T09:31:10.275Z,46.46
2018-11-06T09:32:10.260Z,47.03
2018-11-06T09:33:10.244Z,46.65
2018-11-06T09:34:10.239Z,45.89
2018-11-06T09:35:10.253Z,45.79
2018-11-06T09:36:10.213Z,46.17
2018-11-06T09:37:10.201Z,46.94
2018-11-06T09:38:10.187Z,47.89
2018-11-06T09:39:10.189Z,47.32
2018-11-06T09:40:10.173Z,46.65
2018-11-06T09:41:10.169Z,46.75
2018-11-06T09:42:10.155Z,47.13
2018-11-06T09:43:10.141Z,45.69
2018-11-06T09:44:10.128Z,46.36
2018-11-06T09:45:10.161Z,46.65
2018-11-06T09:46:10.107Z,46.55
2018-11-06T09:47:10.098Z,46.55
2018-11-06T09:48:10.086Z,46.65
2018-11-06T09:49:10.074Z,46.55
2018-11-06T09:50:10.069Z,46.55
2018-11-06T09:51:10.054Z,47.42
2018-11-06T09:52:10.112Z,47.03
2018-11-06T09:53:10.033Z,47.06
2018-11-06T09:54:10.023Z,46.48
2018-11-06T09:55:10.011Z,45.14
2018-11-06T09:56:10.003Z,45.50
2018-11-06T09:57:09.987Z,46.39
2018-11-06T09:58:09.981Z,45.90
2018-11-06T09:59:09.967Z,46.00
2018-11-06T10:00:10.020Z,46.29
2018-11-06T10:01:09.946Z,45.81
2018-11-06T10:02:09.948Z,46.10
2018-11-06T10:03:09.928Z,45.81
2018-11-06T10:04:09.918Z,46.67
2018-11-06T10:05:09.909Z,46.48
2018-11-06T10:06:09.982Z,46.70
2018-11-06T10:07:10.166Z,45.07
2018-11-06T10:08:09.877Z,45.74
2018-11-06T10:09:09.924Z,44.61
2018-11-06T10:10:09.857Z,44.03
2018-11-06T10:11:09.843Z,44.61
2018-11-06T10:12:09.848Z,44.70
2018-11-06T10:13:09.822Z,44.61
2018-11-06T10:14:09.812Z,44.54
2018-11-06T10:15:09.802Z,44.06
2018-11-06T10:16:09.795Z,42.81
2018-11-06T10:17:09.780Z,42.90
2018-11-06T10:18:09.772Z,43.38
2018-11-06T10:19:09.761Z,44.75
2018-11-06T10:20:09.753Z,44.17
2018-11-06T10:21:09.772Z,44.65
2018-11-06T10:22:09.730Z,44.29
2018-11-06T10:23:09.718Z,43.14
2018-11-06T10:24:09.715Z,42.37
2018-11-06T10:25:09.714Z,42.47
2018-11-06T10:26:09.692Z,42.94
2018-11-06T10:27:09.734Z,43.33
2018-11-06T10:28:09.674Z,42.37
2018-11-06T10:29:09.656Z,41.62
2018-11-06T10:30:09.653Z,41.14
2018-11-06T10:31:09.651Z,40.18
2018-11-06T10:32:09.645Z,40.35
2018-11-06T10:33:09.631Z,41.70
2018-11-06T10:34:09.617Z,41.79
2018-11-06T10:35:09.605Z,41.89
2018-11-06T10:36:09.601Z,41.89
2018-11-06T10:37:09.591Z,41.91
2018-11-06T10:38:09.648Z,41.62
2018-11-06T10:39:09.572Z,40.45
2018-11-06T10:40:09.561Z,41.31
2018-11-06T10:41:09.556Z,41.22
2018-11-06T10:42:09.539Z,40.64
2018-11-06T10:43:09.534Z,41.22
2018-11-06T10:44:09.530Z,42.18
2018-11-06T10:45:09.514Z,42.08
2018-11-06T10:46:09.503Z,42.37
2018-11-06T10:47:09.496Z,42.37
2018-11-06T10:48:09.487Z,42.37
2018-11-06T10:49:09.481Z,42.58
2018-11-06T10:50:09.470Z,41.82
2018-11-06T10:51:09.460Z,41.72
2018-11-06T10:52:09.449Z,40.76
2018-11-06T10:53:09.455Z,41.72
2018-11-06T10:54:09.435Z,41.72
2018-11-06T10:55:09.428Z,41.72
2018-11-06T10:56:09.433Z,41.91
2018-11-06T10:57:09.406Z,40.85
2018-11-06T10:58:09.471Z,40.55
2018-11-06T10:59:09.393Z,42.39
2018-11-06T11:00:09.377Z,42.87
2018-11-06T11:01:09.375Z,41.60
2018-11-06T11:02:09.360Z,40.83
2018-11-06T11:03:09.351Z,41.22
2018-11-06T11:04:09.396Z,41.70
2018-11-06T11:05:09.339Z,42.27
2018-11-06T11:06:09.324Z,41.89
2018-11-06T11:07:09.314Z,41.12
2018-11-06T11:08:09.308Z,41.79
2018-11-06T11:09:09.294Z,42.37
2018-11-06T11:10:09.544Z,42.18
2018-11-06T11:11:09.281Z,42.94
2018-11-06T11:12:09.274Z,43.52
2018-11-06T11:13:09.258Z,42.56
2018-11-06T11:14:09.252Z,42.56
2018-11-06T11:15:09.245Z,42.93
2018-11-06T11:16:09.241Z,42.83
2018-11-06T11:17:09.225Z,43.33
2018-11-06T11:18:09.224Z,43.98
2018-11-06T11:19:09.211Z,43.40
2018-11-06T11:20:09.231Z,43.12
2018-11-06T11:21:09.188Z,43.31
2018-11-06T11:22:09.178Z,42.35
2018-11-06T11:23:09.177Z,42.25
2018-11-06T11:24:09.217Z,43.70
2018-11-06T11:25:09.155Z,44.75
2018-11-06T11:26:09.147Z,44.75
2018-11-06T11:27:09.136Z,43.29
2018-11-06T11:28:09.137Z,42.90
2018-11-06T11:29:09.118Z,43.00
2018-11-06T11:30:09.106Z,44.06
2018-11-06T11:31:09.098Z,44.73
2018-11-06T11:32:09.091Z,44.15
2018-11-06T11:33:09.081Z,43.88
2018-11-06T11:34:09.077Z,42.54
2018-11-06T11:35:09.077Z,43.10
2018-11-06T11:36:09.053Z,43.67
2018-11-06T11:37:09.049Z,43.87
2018-11-06T11:38:09.031Z,44.06
2018-11-06T11:39:09.027Z,44.17
2018-11-06T11:40:09.015Z,43.88
2018-11-06T11:41:09.005Z,44.08
2018-11-06T11:42:09.000Z,44.27
2018-11-06T11:43:08.989Z,42.73
2018-11-06T11:44:08.980Z,42.64
2018-11-06T11:45:08.972Z,42.44
2018-11-06T11:46:08.961Z,42.83
2018-11-06T11:47:08.953Z,43.40
2018-11-06T11:48:08.954Z,44.17
2018-11-06T11:49:08.931Z,43.79
2018-11-06T11:50:08.939Z,43.52
2018-11-06T11:51:08.913Z,43.91
2018-11-06T11:52:08.904Z,43.04
2018-11-06T11:53:08.895Z,42.85
2018-11-06T11:54:08.888Z,42.47
2018-11-06T11:55:08.880Z,42.39
2018-11-06T11:56:08.868Z,42.77
2018-11-06T11:57:08.861Z,41.99
2018-11-06T11:58:08.861Z,42.10
2018-11-06T11:59:08.842Z,42.30
2018-11-06T12:00:08.949Z,42.30
2018-11-06T12:01:08.823Z,41.91
2018-11-06T12:02:08.871Z,41.26
2018-11-06T12:03:08.807Z,41.64
2018-11-06T12:04:08.803Z,42.12
2018-11-06T12:05:08.788Z,41.64
2018-11-06T12:06:08.783Z,40.88
2018-11-06T12:07:08.838Z,40.80
2018-11-06T12:08:08.772Z,40.70
2018-11-06T12:09:08.756Z,40.89
2018-11-06T12:10:08.744Z,40.89
2018-11-06T12:11:08.738Z,40.99
2018-11-06T12:12:08.734Z,40.61
2018-11-06T12:13:08.723Z,40.31
2018-11-06T12:14:08.713Z,40.22
2018-11-06T12:15:08.703Z,40.22
2018-11-06T12:16:08.701Z,40.72
2018-11-06T12:17:08.686Z,39.06
2018-11-06T12:18:08.714Z,39.47
2018-11-06T12:19:08.669Z,38.89
2018-11-06T12:20:08.661Z,39.09
2018-11-06T12:21:08.654Z,39.95
2018-11-06T12:22:08.642Z,40.34
2018-11-06T12:23:08.653Z,39.86
2018-11-06T12:24:08.678Z,39.66
2018-11-06T12:25:08.784Z,39.86
2018-11-06T12:26:08.607Z,39.09
2018-11-06T12:27:08.607Z,37.74
2018-11-06T12:28:08.596Z,38.12
2018-11-06T12:29:08.589Z,38.22
2018-11-06T12:30:08.582Z,39.45
2018-11-06T12:31:08.570Z,40.22
2018-11-06T12:32:08.562Z,40.31
2018-11-06T12:33:08.549Z,40.80
2018-11-06T12:34:08.550Z,40.31
2018-11-06T12:35:08.540Z,39.74
2018-11-06T12:36:08.533Z,40.22
2018-11-06T12:37:08.562Z,40.51
2018-11-06T12:38:08.513Z,39.45
2018-11-06T12:39:08.506Z,40.20
2018-11-06T12:40:08.495Z,40.88
2018-11-06T12:41:08.488Z,40.28
2018-11-06T12:42:08.482Z,40.08
2018-11-06T12:43:08.556Z,40.85
2018-11-06T12:44:08.472Z,41.24
2018-11-06T12:45:08.458Z,40.83
2018-11-06T12:46:08.446Z,40.83
2018-11-06T12:47:08.443Z,40.83
2018-11-06T12:48:08.428Z,40.93
2018-11-06T12:49:08.421Z,40.73
2018-11-06T12:50:08.463Z,41.49
2018-11-06T12:51:08.405Z,41.79
2018-11-06T12:52:08.398Z,41.96